createdAt,value
2022-09-09T00:42:30.929Z,0.01
2022-09-09T00:47:23.396Z,0
2022-09-09T04:06:32.959Z,0.01
2022-09-09T04:14:06.311Z,0.02
2022-09-09T04:16:29.993Z,0.05
2022-09-09T04:18:39.573Z,0.07
2022-09-09T04:21:37.848Z,0.13
2022-09-09T04:24:21.889Z,0.2
2022-09-09T04:26:51.650Z,0.27
2022-09-09T04:29:07.375Z,0.36
2022-09-09T04:31:08.520Z,0.43
2022-09-09T04:33:58.727Z,0.6
2022-09-09T04:36:34.920Z,0.78
2022-09-09T04:38:56.866Z,1.04
2022-09-09T04:41:04.536Z,1.3
2022-09-09T04:44:01.148Z,1.86
2022-09-09T04:46:43.544Z,2.78
2022-09-09T04:49:15.028Z,3.85
2022-09-09T04:51:25.521Z,4.93
2022-09-09T04:53:25.196Z,6.68
2022-09-09T04:56:13.728Z,8.52
2022-09-09T04:58:47.984Z,10.39
2022-09-09T05:01:08.304Z,12.03
2022-09-09T05:03:14.164Z,12.73
2022-09-09T05:06:08.820Z,15.72
2022-09-09T05:08:49.446Z,20.82
2022-09-09T05:11:15.872Z,23.68
2022-09-09T05:13:27.959Z,28
2022-09-09T05:15:26.055Z,31.35
2022-09-09T05:18:13.131Z,33.8
2022-09-09T05:20:45.383Z,36.04
2022-09-09T05:23:03.218Z,36.36
2022-09-09T05:25:07.425Z,39.82
2022-09-09T05:28:00.349Z,42.74
2022-09-09T05:30:39.066Z,29.13
2022-09-09T05:33:03.727Z,25.65
2022-09-09T05:35:14.083Z,34.26
2022-09-09T05:38:13.182Z,37.1
2022-09-09T05:40:58.301Z,47.4
2022-09-09T05:43:29.181Z,70.2
2022-09-09T05:45:45.713Z,71
2022-09-09T05:47:48.255Z,50.08
2022-09-09T05:50:39.503Z,30.71
2022-09-09T05:53:16.542Z,24.6
2022-09-09T05:55:39.235Z,25.99
2022-09-09T05:57:47.943Z,30.2
2022-09-09T06:00:45.329Z,31.1
2022-09-09T06:03:28.386Z,50.1
2022-09-09T06:05:57.460Z,49.62
2022-09-09T06:08:12.260Z,59.1
2022-09-09T06:10:13.009Z,88.2
2022-09-09T06:13:02.238Z,160.44
2022-09-09T06:15:37.752Z,203.5
2022-09-09T06:17:58.001Z,154.32
2022-09-09T06:20:04.913Z,103.4
2022-09-09T06:23:00.520Z,122.84
2022-09-09T06:25:41.878Z,161.44
2022-09-09T06:28:08.996Z,219.2
2022-09-09T06:30:22.120Z,150.52
2022-09-09T06:32:21.142Z,119.48
2022-09-09T06:35:08.463Z,140.44
2022-09-09T06:37:41.966Z,176.8
2022-09-09T06:40:01.233Z,234.1
2022-09-09T06:42:06.172Z,238.9
2022-09-09T06:45:00.150Z,244.6
2022-09-09T06:47:39.791Z,246.5
2022-09-09T06:50:05.192Z,207.9
2022-09-09T06:52:16.515Z,178.8
2022-09-09T06:55:16.618Z,160.32
2022-09-09T06:58:02.405Z,163.6
2022-09-09T07:00:33.997Z,186.1
2022-09-09T07:02:51.422Z,196.8
2022-09-09T07:04:54.616Z,207.6
2022-09-09T07:07:46.107Z,210.7
2022-09-09T07:10:23.976Z,195.4
2022-09-09T07:12:47.571Z,173.5
2022-09-09T07:14:56.934Z,173.7
2022-09-09T07:17:55.204Z,201.8
2022-09-09T07:20:39.250Z,192.8
2022-09-09T07:23:08.973Z,157.6
2022-09-09T07:25:24.454Z,151.44
2022-09-09T07:27:25.956Z,112.96
2022-09-09T07:30:21.011Z,106.8
2022-09-09T07:32:52.118Z,177
2022-09-09T07:35:14.053Z,203.7
2022-09-09T07:37:21.716Z,221.7
2022-09-09T07:40:18.103Z,294
2022-09-09T07:43:00.371Z,303
2022-09-09T07:45:28.402Z,312.3
2022-09-09T07:47:42.168Z,324.8
2022-09-09T07:49:41.962Z,303.9
2022-09-09T07:52:30.446Z,227
2022-09-09T07:54:45.468Z,222.8
2022-09-09T07:56:46.233Z,218
2022-09-09T07:59:35.304Z,230.3
2022-09-09T08:02:10.708Z,203.1
2022-09-09T08:04:31.840Z,199.8
2022-09-09T08:06:38.726Z,228.8
2022-09-09T08:09:34.584Z,285.6
2022-09-09T08:12:16.030Z,319.6
2022-09-09T08:14:43.292Z,379.8
2022-09-09T08:16:56.450Z,352.3
2022-09-09T08:18:55.431Z,407.3
2022-09-09T08:21:43.020Z,449.4
2022-09-09T08:24:16.403Z,410.7
2022-09-09T08:26:35.792Z,346.7
2022-09-09T08:28:40.920Z,314.4
2022-09-09T08:31:34.746Z,322.9
2022-09-09T08:34:14.627Z,345.4
2022-09-09T08:36:40.235Z,507.3
2022-09-09T08:38:51.547Z,490.5
2022-09-09T08:41:51.825Z,508
2022-09-09T08:44:37.750Z,448.3
2022-09-09T08:47:09.452Z,394.4
2022-09-09T08:49:26.867Z,393.7
2022-09-09T08:51:30.037Z,374.8
2022-09-09T08:54:41.718Z,389.4
2022-09-09T08:56:59.817Z,375.8
2022-09-09T08:59:23.597Z,388.4
2022-09-09T09:01:33.207Z,439.5
2022-09-09T09:04:31.402Z,485.7
2022-09-09T09:07:15.467Z,433.4
2022-09-09T09:09:45.373Z,408.3
2022-09-09T09:12:01.036Z,387.2
2022-09-09T09:14:03.769Z,392.9
2022-09-09T09:16:52.855Z,395.6
2022-09-09T09:19:28.905Z,396.8
2022-09-09T09:21:50.665Z,425.7
2022-09-09T09:23:58.391Z,438.5
2022-09-09T09:26:54.752Z,426.2
2022-09-09T09:29:50.686Z,426.7
2022-09-09T09:32:04.968Z,477.7
2022-09-09T09:34:18.826Z,475.6
2022-09-09T09:36:18.466Z,741.4
2022-09-09T09:41:42.123Z,368.9
2022-09-09T09:44:00.992Z,298.3
2022-09-09T09:46:17.087Z,262.4
2022-09-09T09:49:01.661Z,304
2022-09-09T09:51:42.037Z,362.5
2022-09-09T09:54:08.338Z,365.4
2022-09-09T09:56:20.415Z,397.4
2022-09-09T09:58:18.617Z,404.3
2022-09-09T10:01:04.982Z,385.4
2022-09-09T10:03:37.577Z,1018.8
2022-09-09T10:05:55.904Z,310
2022-09-09T10:07:59.963Z,352.4
2022-09-09T10:10:52.985Z,520.1
2022-09-09T10:13:31.716Z,696.9
2022-09-09T10:15:56.226Z,1329.2
2022-09-09T10:18:06.595Z,975.6
2022-09-09T10:21:05.719Z,932.8
2022-09-09T10:23:50.538Z,1037.7
2022-09-09T10:26:21.073Z,922.5
2022-09-09T10:28:37.834Z,665.2
2022-09-09T10:30:39.985Z,634.2
2022-09-09T10:33:31.370Z,702
2022-09-09T10:36:07.427Z,1304
2022-09-09T10:38:30.092Z,789.7
2022-09-09T10:40:38.461Z,630
2022-09-09T10:43:35.952Z,456.8
2022-09-09T10:46:18.728Z,381.9
2022-09-09T10:48:47.401Z,286.9
2022-09-09T10:51:04.489Z,269.6
2022-09-09T10:53:02.443Z,267.6
2022-09-09T10:55:51.597Z,150.92
2022-09-09T10:58:26.432Z,125.04
2022-09-09T11:00:47.345Z,211.4
2022-09-09T11:02:54.046Z,421.6
2022-09-09T11:05:49.328Z,545.4
2022-09-09T11:08:30.606Z,972.4
2022-09-09T11:10:57.655Z,1054.7
2022-09-09T11:13:10.463Z,414.4
2022-09-09T11:15:09.872Z,351
2022-09-09T11:17:56.716Z,496.3
2022-09-09T11:20:29.943Z,471.3
2022-09-09T11:22:48.909Z,1111.6
2022-09-09T11:24:53.929Z,554.8
2022-09-09T11:27:47.218Z,489.4
2022-09-09T11:30:51.541Z,337.4
2022-09-09T11:32:51.819Z,384.1
2022-09-09T11:35:02.926Z,388.6
2022-09-09T11:38:02.638Z,383.6
2022-09-09T11:40:48.329Z,864
2022-09-09T11:43:19.764Z,493.9
2022-09-09T11:45:36.998Z,1079.3
2022-09-09T11:47:40.202Z,1015.6
2022-09-09T11:50:32.019Z,952.3
2022-09-09T11:53:09.544Z,221.9
2022-09-09T11:55:32.808Z,220.7
2022-09-09T11:57:42.576Z,226.6
2022-09-09T12:00:40.048Z,140.84
2022-09-09T12:03:23.725Z,131.52
2022-09-09T12:05:53.399Z,260.3
2022-09-09T12:08:08.822Z,446.8
2022-09-09T12:10:10.007Z,645.1
2022-09-09T12:13:00.061Z,629.9
2022-09-09T12:15:35.915Z,556.9
2022-09-09T12:18:00.957Z,468.3
2022-09-09T12:20:04.742Z,677.1
2022-09-09T12:23:00.801Z,328.8
2022-09-09T12:25:42.727Z,388.3
2022-09-09T12:28:10.457Z,316.8
2022-09-09T12:30:24.245Z,281.1
2022-09-09T12:32:23.810Z,260.8
2022-09-09T12:35:12.054Z,236.3
2022-09-09T12:37:46.265Z,283.7
2022-09-09T12:40:06.297Z,299.5
2022-09-09T12:42:11.867Z,290.9
2022-09-09T12:45:06.429Z,240.3
2022-09-09T12:47:46.725Z,102.72
2022-09-09T12:50:12.865Z,47.74
2022-09-09T12:52:24.912Z,60.28
2022-09-09T12:54:22.757Z,86.8
2022-09-09T12:57:09.197Z,146.96
2022-09-09T12:59:41.479Z,219.7
2022-09-09T13:01:59.859Z,290
2022-09-09T13:04:03.714Z,270.8
2022-09-09T13:06:56.326Z,305.8
2022-09-09T13:11:58.976Z,351.3
2022-09-09T13:14:09.191Z,363.2
2022-09-09T13:17:08.375Z,390.7
2022-09-09T13:19:53.222Z,309.6
2022-09-09T13:22:24.041Z,314.2
2022-09-09T13:24:40.426Z,404
2022-09-09T13:26:42.845Z,319.6
2022-09-09T13:29:34.001Z,471.2
2022-09-09T13:32:10.807Z,358.7
2022-09-09T13:34:33.632Z,653.9
2022-09-09T13:36:42.154Z,624.8
2022-09-09T13:39:39.380Z,600.1
2022-09-09T13:42:22.563Z,831
2022-09-09T13:44:51.512Z,789.1
2022-09-09T13:47:10.152Z,794.5
2022-09-09T13:49:06.820Z,757.4
2022-09-09T13:51:56.916Z,768
2022-09-09T13:54:31.339Z,787.8
2022-09-09T13:56:52.341Z,772.8
2022-09-09T13:58:58.949Z,752.3
2022-09-09T14:01:54.438Z,700.1
2022-09-09T14:04:35.217Z,622.2
2022-09-09T14:07:02.413Z,529.4
2022-09-09T14:09:15.385Z,356.9
2022-09-09T14:11:14.123Z,341.1
2022-09-09T14:14:01.754Z,213.2
2022-09-09T14:16:35.089Z,199.9
2022-09-09T14:18:54.196Z,192.8
2022-09-09T14:20:59.307Z,182
2022-09-09T14:23:53.025Z,187.7
2022-09-09T14:26:32.531Z,209.2
2022-09-09T14:28:58.129Z,238.5
2022-09-09T14:31:09.054Z,265.3
2022-09-09T14:34:08.965Z,286.3
2022-09-09T14:36:54.659Z,305.2
2022-09-09T14:39:26.324Z,304.4
2022-09-09T14:41:43.713Z,272.8
2022-09-09T14:43:46.858Z,239.1
2022-09-09T14:46:38.891Z,214.6
2022-09-09T14:49:16.749Z,233.2
2022-09-09T14:51:40.280Z,278.8
2022-09-09T14:53:49.851Z,273.2
2022-09-09T14:56:47.664Z,356.8
2022-09-09T14:59:31.597Z,400.8
2022-09-09T15:02:01.301Z,382.2
2022-09-09T15:04:17.016Z,363
2022-09-09T15:06:18.412Z,367.6
2022-09-09T15:09:08.519Z,363.5
2022-09-09T15:11:44.599Z,328.6
2022-09-09T15:14:06.447Z,301.4
2022-09-09T15:16:14.113Z,304.4
2022-09-09T15:19:10.560Z,343.6
2022-09-09T15:21:52.940Z,325.6
2022-09-09T15:24:20.793Z,283.6
2022-09-09T15:26:34.428Z,265.3
2022-09-09T15:28:34.111Z,300.6
2022-09-09T15:31:22.439Z,338.8
2022-09-09T15:33:56.524Z,344.4
2022-09-09T15:35:23.412Z,344.4
2022-09-09T15:36:16.602Z,336.4
2022-09-09T15:38:22.447Z,321.9
2022-09-09T15:41:17.028Z,309.2
2022-09-09T15:43:57.563Z,250.4
2022-09-09T15:46:23.912Z,208
2022-09-09T15:48:35.518Z,188.6
2022-09-09T15:50:33.465Z,165.7
2022-09-09T15:53:20.123Z,141.08
2022-09-09T15:55:54.731Z,126.2
2022-09-09T15:58:10.620Z,124.36
2022-09-09T16:00:14.722Z,122.04
2022-09-09T16:03:07.532Z,104.48
2022-09-09T16:05:46.084Z,89.04
2022-09-09T16:08:10.559Z,82.88
2022-09-09T16:10:20.751Z,82.24
2022-09-09T16:13:19.739Z,84.4
2022-09-09T16:16:04.784Z,89
2022-09-09T16:18:35.268Z,94.6
2022-09-09T16:20:51.676Z,99.64
2022-09-09T16:22:54.084Z,98.72
2022-09-09T16:25:45.156Z,101.76
2022-09-09T16:28:22.005Z,93.24
2022-09-09T16:30:44.557Z,90.96
2022-09-09T16:32:53.088Z,91.64
2022-09-09T16:35:50.295Z,115.4
2022-09-09T16:41:01.791Z,94
2022-09-09T16:43:16.479Z,90.96
2022-09-09T16:45:16.871Z,87.56
2022-09-09T16:48:06.209Z,79.84
2022-09-09T16:50:41.319Z,77.02
2022-09-09T16:53:02.143Z,77.08
2022-09-09T16:55:09.655Z,73.62
2022-09-09T16:58:04.451Z,67.48
2022-09-09T17:00:45.635Z,64.34
2022-09-09T17:03:12.580Z,60.12
2022-09-09T17:05:25.416Z,56.66
2022-09-09T17:07:24.126Z,54.04
2022-09-09T17:10:11.516Z,50.04
2022-09-09T17:12:44.837Z,46.26
2022-09-09T17:15:03.920Z,43.7
2022-09-09T17:17:24.983Z,41.26
2022-09-09T17:20:02.501Z,37.81
2022-09-09T17:22:41.979Z,35.39
2022-09-09T17:25:07.229Z,32.54
2022-09-09T17:27:18.427Z,29.6
2022-09-09T17:30:18.293Z,26
2022-09-09T17:33:03.478Z,22.98
2022-09-09T17:35:34.821Z,19.84
2022-09-09T17:37:52.177Z,17.24
2022-09-09T17:39:55.271Z,15.59
2022-09-09T17:42:46.959Z,12.56
2022-09-09T17:45:24.688Z,10.35
2022-09-09T17:47:48.191Z,8.48
2022-09-09T17:49:57.446Z,6.67
2022-09-09T17:52:55.574Z,4.51
2022-09-09T17:55:39.441Z,3.59
2022-09-09T17:58:09.078Z,2.69
2022-09-09T18:00:24.483Z,2.1
2022-09-09T18:02:25.956Z,1.67
2022-09-09T18:05:16.008Z,1.1
2022-09-09T18:07:51.847Z,0.77
2022-09-09T18:10:13.665Z,0.54
2022-09-09T18:12:21.236Z,0.39
2022-09-09T18:17:59.629Z,0.15
2022-09-09T18:20:27.612Z,0.09
2022-09-09T18:22:41.361Z,0.06
2022-09-09T18:24:40.698Z,0.04
2022-09-09T18:27:29.090Z,0.02
2022-09-09T18:29:44.014Z,0.01
2022-09-09T19:01:34.465Z,0
2022-09-09T19:16:49.960Z,0.01
2022-09-09T19:19:35.930Z,0
2022-09-09T19:29:20.408Z,0.01
2022-09-09T19:34:22.083Z,0.01
2022-09-09T19:36:31.617Z,0
2022-09-09T19:39:29.896Z,0.01
2022-09-09T19:42:14.136Z,0
2022-09-09T21:08:35.853Z,0.01
2022-09-09T21:13:35.999Z,0
2022-09-09T21:18:42.359Z,0.01
2022-09-09T21:21:25.806Z,0
